createdAt,value
2023-03-24T00:01:37.671Z,35.94
2023-03-24T00:06:39.050Z,35.88
2023-03-24T00:11:40.515Z,36.00
2023-03-24T00:16:45.242Z,35.91
2023-03-24T00:21:46.631Z,36.20
2023-03-24T00:26:50.655Z,36.34
2023-03-24T00:31:52.840Z,36.07
2023-03-24T00:36:54.274Z,36.18
2023-03-24T00:41:58.612Z,36.35
2023-03-24T00:47:01.422Z,36.13
2023-03-24T00:52:09.727Z,36.26
2023-03-24T00:57:12.802Z,36.19
2023-03-24T01:02:22.335Z,36.40
2023-03-24T01:07:24.911Z,36.31
2023-03-24T01:12:34.073Z,36.61
2023-03-24T01:17:35.537Z,36.45
2023-03-24T01:22:39.822Z,36.53
2023-03-24T01:27:41.421Z,36.54
2023-03-24T01:32:43.793Z,36.74
2023-03-24T01:37:45.256Z,36.69
2023-03-24T01:42:46.652Z,36.50
2023-03-24T01:47:48.640Z,36.65
2023-03-24T01:52:50.223Z,36.58
2023-03-24T01:57:53.537Z,36.63
2023-03-24T02:02:58.396Z,36.58
2023-03-24T02:08:19.313Z,36.54
2023-03-24T02:13:21.365Z,36.90
2023-03-24T02:18:28.573Z,37.08
2023-03-24T02:23:50.371Z,37.45
2023-03-24T02:29:10.317Z,37.52
2023-03-24T02:34:58.668Z,37.51
2023-03-24T02:40:12.328Z,37.28
2023-03-24T02:45:27.488Z,37.44
2023-03-24T02:50:51.009Z,37.44
2023-03-24T02:55:57.630Z,37.65
2023-03-24T03:01:07.313Z,37.53
2023-03-24T03:06:52.566Z,37.28
2023-03-24T03:11:54.414Z,37.50
2023-03-24T03:17:06.188Z,37.36
2023-03-24T03:22:11.548Z,37.55
2023-03-24T03:27:16.353Z,37.49
2023-03-24T03:32:21.551Z,37.56
2023-03-24T03:37:44.810Z,37.64
2023-03-24T03:42:47.428Z,37.68
2023-03-24T03:47:48.878Z,37.80
2023-03-24T03:52:50.324Z,37.82
2023-03-24T03:57:51.730Z,38.01
2023-03-24T04:03:08.336Z,37.99
2023-03-24T04:08:18.124Z,38.50
2023-03-24T04:13:47.157Z,38.28
2023-03-24T04:19:33.741Z,38.79
2023-03-24T04:24:45.391Z,39.22
2023-03-24T04:30:02.366Z,39.02
2023-03-24T04:35:10.120Z,38.84
2023-03-24T04:40:11.754Z,39.52
2023-03-24T04:45:13.237Z,39.56
2023-03-24T04:50:14.740Z,39.68
2023-03-24T04:55:32.973Z,39.81
2023-03-24T05:00:36.759Z,39.80
2023-03-24T05:05:38.147Z,39.49
2023-03-24T05:10:39.579Z,39.44
2023-03-24T05:15:41.201Z,39.47
2023-03-24T05:20:42.604Z,39.51
2023-03-24T05:25:46.458Z,39.30
2023-03-24T05:30:47.955Z,39.31
2023-03-24T05:35:49.407Z,38.95
2023-03-24T05:40:50.971Z,39.19
2023-03-24T05:45:52.425Z,38.98
2023-03-24T05:50:53.895Z,38.85
2023-03-24T05:55:58.489Z,38.78
2023-03-24T06:00:59.858Z,38.87
2023-03-24T06:06:01.283Z,38.53
2023-03-24T06:11:02.987Z,38.42
2023-03-24T06:16:04.592Z,38.95
2023-03-24T06:21:06.896Z,39.47
2023-03-24T06:26:09.888Z,39.27
2023-03-24T06:31:15.142Z,39.07
2023-03-24T06:36:16.644Z,39.29
2023-03-24T06:41:18.079Z,38.97
2023-03-24T06:46:19.487Z,38.76
2023-03-24T06:51:21.405Z,38.56
2023-03-24T06:56:22.823Z,38.38
2023-03-24T07:01:24.477Z,38.00
2023-03-24T07:06:26.136Z,37.88
2023-03-24T07:11:27.926Z,37.63
2023-03-24T07:16:29.361Z,37.62
2023-03-24T07:21:30.786Z,37.36
2023-03-24T07:26:32.158Z,37.06
2023-03-24T07:31:37.702Z,36.86
2023-03-24T07:36:39.140Z,37.02
2023-03-24T07:41:41.063Z,37.09
2023-03-24T07:46:42.461Z,36.94
2023-03-24T07:51:44.527Z,36.84
2023-03-24T07:56:45.959Z,36.22
2023-03-24T08:01:52.077Z,36.02
2023-03-24T08:06:57.138Z,36.02
2023-03-24T08:12:02.207Z,35.79
2023-03-24T08:17:09.309Z,35.67
2023-03-24T08:22:10.839Z,35.80
2023-03-24T08:27:12.231Z,35.69
2023-03-24T08:32:13.815Z,35.51
2023-03-24T08:37:15.281Z,35.42
2023-03-24T08:42:16.654Z,35.33
2023-03-24T08:47:18.023Z,35.31
2023-03-24T08:52:19.418Z,35.25
2023-03-24T08:57:21.669Z,35.26
2023-03-24T09:02:23.055Z,35.32
2023-03-24T09:07:24.475Z,35.88
2023-03-24T09:12:26.129Z,36.22
2023-03-24T09:17:27.548Z,36.34
2023-03-24T09:22:28.957Z,36.73
2023-03-24T09:27:32.953Z,36.57
2023-03-24T09:32:34.804Z,36.55
2023-03-24T09:37:36.457Z,36.37
2023-03-24T09:42:39.166Z,36.29
2023-03-24T09:48:01.903Z,36.00
2023-03-24T09:53:07.850Z,35.85
2023-03-24T09:58:10.702Z,35.58
2023-03-24T10:03:20.309Z,35.60
2023-03-24T10:08:27.060Z,35.42
2023-03-24T10:13:42.290Z,35.63
2023-03-24T10:18:52.481Z,35.47
2023-03-24T10:23:59.806Z,35.03
2023-03-24T10:29:21.970Z,35.01
2023-03-24T10:34:25.324Z,34.87
2023-03-24T10:39:41.462Z,34.48
2023-03-24T10:44:47.021Z,34.16
2023-03-24T10:49:52.863Z,33.85
2023-03-24T10:54:56.260Z,33.84
2023-03-24T11:00:10.134Z,33.85
2023-03-24T11:05:22.397Z,33.78
2023-03-24T11:10:27.193Z,33.78
2023-03-24T11:15:30.310Z,33.88
2023-03-24T11:20:37.916Z,34.05
2023-03-24T11:25:40.459Z,34.20
2023-03-24T11:30:49.734Z,34.12
2023-03-24T11:35:59.413Z,34.29
2023-03-24T11:41:09.685Z,34.44
2023-03-24T11:46:17.708Z,34.46
2023-03-24T11:51:30.267Z,34.69
2023-03-24T11:56:40.614Z,34.75
2023-03-24T12:01:51.931Z,34.65
2023-03-24T12:07:25.049Z,34.90
2023-03-24T12:12:33.546Z,34.73
2023-03-24T12:17:55.271Z,34.71
2023-03-24T12:23:10.380Z,34.52
2023-03-24T12:28:25.020Z,34.74
2023-03-24T12:33:52.416Z,34.61
2023-03-24T12:38:59.970Z,34.68
2023-03-24T12:44:14.742Z,34.84
2023-03-24T12:49:36.451Z,35.05
2023-03-24T12:54:53.239Z,35.20
2023-03-24T13:00:08.507Z,35.64
2023-03-24T13:05:16.494Z,35.67
2023-03-24T13:10:22.831Z,35.88
2023-03-24T13:15:47.439Z,35.78
2023-03-24T13:21:16.220Z,36.21
2023-03-24T13:26:38.571Z,36.31
2023-03-24T13:31:52.781Z,36.42
2023-03-24T13:36:57.128Z,36.60
2023-03-24T13:41:58.531Z,36.50
2023-03-24T13:47:10.419Z,36.57
2023-03-24T13:52:28.876Z,36.72
2023-03-24T13:57:30.318Z,36.65
2023-03-24T14:02:49.492Z,37.02
2023-03-24T14:08:02.901Z,37.40
2023-03-24T14:13:07.614Z,38.43
2023-03-24T14:18:16.273Z,38.60
2023-03-24T14:23:24.251Z,38.82
2023-03-24T14:28:31.897Z,38.64
2023-03-24T14:33:33.298Z,38.45
2023-03-24T14:38:36.476Z,38.25
2023-03-24T14:43:41.356Z,38.29
2023-03-24T14:49:01.369Z,38.02
2023-03-24T14:54:04.519Z,37.65
2023-03-24T14:59:10.814Z,37.45
2023-03-24T15:04:13.628Z,37.36
2023-03-24T15:09:16.267Z,37.47
2023-03-24T15:14:24.442Z,37.55
2023-03-24T15:19:27.121Z,37.31
2023-03-24T15:24:33.827Z,37.22
2023-03-24T15:29:39.016Z,36.92
2023-03-24T15:34:40.765Z,36.69
2023-03-24T15:39:42.180Z,36.52
2023-03-24T15:44:43.581Z,36.61
2023-03-24T15:49:54.684Z,36.37
2023-03-24T15:55:16.003Z,36.30
2023-03-24T16:00:19.613Z,36.23
2023-03-24T16:05:25.892Z,36.01
2023-03-24T16:10:39.230Z,35.69
2023-03-24T16:15:42.687Z,35.64
2023-03-24T16:20:44.094Z,35.51
2023-03-24T16:25:45.556Z,35.20
2023-03-24T16:30:48.521Z,34.98
2023-03-24T16:35:50.506Z,34.73
2023-03-24T16:40:53.287Z,34.87
2023-03-24T16:45:54.719Z,34.38
2023-03-24T16:50:58.045Z,33.98
2023-03-24T16:55:59.433Z,34.18
2023-03-24T17:01:01.516Z,34.26
2023-03-24T17:06:03.450Z,34.06
2023-03-24T17:11:04.994Z,34.25
2023-03-24T17:16:09.491Z,34.03
2023-03-24T17:21:15.855Z,33.90
2023-03-24T17:26:17.259Z,34.08
2023-03-24T17:31:18.742Z,33.83
2023-03-24T17:36:20.182Z,33.90
2023-03-24T17:41:21.568Z,33.82
2023-03-24T17:46:23.080Z,33.71
2023-03-24T17:51:24.582Z,33.71
2023-03-24T17:56:25.947Z,33.62
2023-03-24T18:01:30.390Z,33.43
2023-03-24T18:06:31.796Z,33.44
2023-03-24T18:11:33.162Z,33.38
2023-03-24T18:16:35.513Z,33.34
2023-03-24T18:21:37.544Z,33.42
2023-03-24T18:26:39.007Z,33.14
2023-03-24T18:31:40.412Z,33.07
2023-03-24T18:36:42.219Z,33.04
2023-03-24T18:41:43.611Z,33.11
2023-03-24T18:46:45.258Z,33.04
2023-03-24T18:51:46.808Z,33.06
2023-03-24T18:56:48.297Z,33.05
2023-03-24T19:01:50.456Z,33.06
2023-03-24T19:06:51.929Z,33.09
2023-03-24T19:11:53.554Z,33.06
2023-03-24T19:16:56.209Z,33.00
2023-03-24T19:21:58.500Z,33.00
2023-03-24T19:26:59.942Z,33.00
2023-03-24T19:32:01.310Z,32.91
2023-03-24T19:37:02.683Z,32.73
2023-03-24T19:42:07.481Z,32.49
2023-03-24T19:47:08.932Z,32.56
2023-03-24T19:52:10.479Z,32.37
2023-03-24T19:57:11.907Z,32.37
2023-03-24T20:02:16.901Z,32.10
2023-03-24T20:07:18.294Z,31.93
2023-03-24T20:12:19.734Z,32.04
2023-03-24T20:17:21.865Z,32.13
2023-03-24T20:22:23.400Z,32.14
2023-03-24T20:27:24.793Z,31.94
2023-03-24T20:32:26.341Z,31.81
2023-03-24T20:37:30.379Z,32.12
2023-03-24T20:42:31.826Z,31.93
2023-03-24T20:47:33.215Z,31.98
2023-03-24T20:52:34.881Z,31.92
2023-03-24T20:57:37.205Z,31.90
2023-03-24T21:02:38.914Z,31.88
2023-03-24T21:07:43.533Z,32.00
2023-03-24T21:12:54.114Z,32.08
2023-03-24T21:17:56.207Z,31.92
2023-03-24T21:22:57.894Z,31.83
2023-03-24T21:27:59.339Z,31.99
2023-03-24T21:33:01.249Z,31.94
2023-03-24T21:38:05.396Z,31.83
2023-03-24T21:43:07.054Z,31.83
2023-03-24T21:48:09.901Z,31.67
2023-03-24T21:53:18.018Z,31.73
2023-03-24T21:58:19.471Z,31.71
2023-03-24T22:03:21.624Z,31.80
2023-03-24T22:08:26.476Z,31.76
2023-03-24T22:13:28.211Z,31.71
2023-03-24T22:18:31.660Z,31.70
2023-03-24T22:23:34.620Z,31.78
2023-03-24T22:28:36.103Z,32.08
2023-03-24T22:33:37.718Z,31.86
2023-03-24T22:38:39.123Z,32.00
2023-03-24T22:43:41.455Z,32.00
2023-03-24T22:48:42.826Z,31.96
2023-03-24T22:53:44.209Z,32.02
2023-03-24T22:58:45.595Z,31.98
2023-03-24T23:03:47.013Z,31.89
2023-03-24T23:08:50.063Z,31.88
2023-03-24T23:13:52.109Z,31.85
2023-03-24T23:18:54.086Z,31.92
2023-03-24T23:23:55.878Z,31.89
2023-03-24T23:28:57.275Z,32.00
2023-03-24T23:33:58.793Z,31.78
2023-03-24T23:39:00.167Z,31.65
2023-03-24T23:44:01.553Z,31.68
2023-03-24T23:49:02.986Z,31.70
2023-03-24T23:54:04.453Z,31.44
2023-03-24T23:59:06.672Z,31.54
